AirNav   Air Wisconsin Up To $57,000 Bonus
 
 1524 users online  

21ND Rosenau Airport
Upham, North Dakota, USA

GOING TO UPHAM?


FAA INFORMATION EFFECTIVE 03 NOVEMBER 2022

Location

FAA Identifier: 21ND
Lat/Long: 48-34-56.2150N 100-51-17.4500W
48-34.936917N 100-51.290833W
48.5822819,-100.8548472
(estimated)
Elevation: 1450 ft. / 442 m (estimated)
Variation: 10E (1985)
From city: 4 miles W of UPHAM, ND
Time zone: UTC -6 (UTC -5 during Daylight Saving Time)
Zip code: 58789

Airport Operations

Airport use: Private use. Permission required prior to landing
Activation date: 01/1981
Control tower: no
ARTCC: MINNEAPOLIS CENTER
FSS: GRAND FORKS FLIGHT SERVICE STATION
Attendance: UNATNDD
Wind indicator: yes
Segmented circle: no

Nearby radio navigation aids

VOR radial/distance  VOR name  Freq  Var
MOTr029/25.9MINOT VOR/DME117.1013E

Airport Services

Runway Information

Runway 8/26

Dimensions: 2500 x 40 ft. / 762 x 12 m
Surface: turf
RUNWAY 8  RUNWAY 26
Latitude: 48-34.937333N48-34.936500N
Longitude: 100-51.600667W100-50.981167W
Elevation: 1450.0 ft.1438.0 ft.
Traffic pattern: leftright
Runway heading: 080 magnetic, 090 true260 magnetic, 270 true
Touchdown point: yes, no lightsyes, no lights

Airport Ownership and Management from official FAA records

Ownership: Privately-owned
Owner: DENNIS ROSENAU
3515 10TH ST SW APT 115
MINOT, ND 58701-7390
Phone 701-768-2987
Manager: DENNIS ROSENAU
3515 10TH ST SW APT 115
MINOT, ND 58701-7390
Phone 701-768-2987

Airport Operational Statistics

Aircraft based on the field: 1
Single engine airplanes: 1
    

Additional Remarks

FOR CD CTC MINNEAPOLIS ARTCC AT 651-463-5588.

Instrument Procedures

There are no published instrument procedures at 21ND.

Some nearby airports with instrument procedures:

KMIB - Minot Air Force Base (22 nm SW)
D09 - Bottineau Municipal Airport (23 nm NE)
KMOT - Minot International Airport (26 nm SW)
KHBC - Mohall Municipal Airport (29 nm NW)
KRUG - Rugby Municipal Airport (35 nm E)
 
Loc | Ops | Rwys | IFR | FBO | Links
Com | Nav | Svcs | Stats | Notes

Bismarck Aero Center
AirBoss

 
Area around 21ND (Rosenau Airport)
 
Road maps at: MapQuest Bing Google
 
Aerial photo
No photo
 
Sectional chart

 
Airport distance calculator
Flying to Rosenau Airport? Find the distance to fly.

From to 21ND

Sunrise and sunset
Times for 29-Nov-2022
 Local
(UTC-6)
 Zulu
(UTC)
Morning civil twilight07:3713:37
Sunrise08:1314:13
Sunset16:5122:51
Evening civil twilight17:2623:26

Current date and time
Zulu (UTC)  29-Nov-2022 19:38:55
Local (UTC-6)  29-Nov-2022 13:38:55
 
METAR
KMIB 
21nm SW 
291854Z 33024G31KT 6SM BLSN SCT019 OVC024 M07/M12 A2968 RMK PK WND 33033/43 SNB11E44 SLP085 P0000 T10721118 $
KMOT 
26nm SW 
291854Z 28023G31KT 8SM -SN OVC026 M07/M12 A2970 RMK AO2 PK WND 28033/1810 SLP090 P0000 T10671122
KRUG 
35nm E 
291915Z AUTO 29021KT 3SM -SN SCT022 M07/M09 A2964 RMK AO2
TAF
KMIB 
21nm SW 
291808Z 2918/3023 31020G30KT 3200 -SN OVC010 620108 510003 QNH2966INS BECMG 2923/2924 31015G25KT 9999 NSW FEW020 BKN025 OVC040 620257 QNH2978INS BECMG 3008/3009 31012G18KT 9999 SCT040 BKN055 620555 QNH2997INS BECMG 3018/3019 30012KT 9999 SCT050 QNH3011INS TXM06/2920Z TNM14/3014Z
KMOT 
26nm SW 
291726Z 2918/3018 26023G33KT P6SM SCT025 OVC050 TEMPO 2918/2921 -SN OVC025 FM292100 30023G33KT P6SM OVC020 FM301000 31018G26KT P6SM BKN025 FM301200 31017KT P6SM BKN018
NOTAMs
Click for the latest NOTAMs
NOTAMs are issued by the DoD/FAA and will open in a separate window not controlled by AirNav.

 

 
 

Would you like to see your business listed on this page?

 If your business provides an interesting product or service to pilots, flight crews, aircraft, or users of the Rosenau Airport, you should consider listing it here.  To start the listing process, click on the button below
 
Add a business
 

Other Pages about Rosenau Airport

Update a link
 
Copyright © AirNav, LLC. All rights reserved. Privacy Policy  Contact